Terminal Aerodrome Forecast
Issued by NWS

Home | Current Version | Previous Version | Text Only | Print | Product List | Glossary On
Versions: 1 2 3 4 5 6 7 8 9 10 11 12 13
000
FTPQ31 PGUM 241738
TAFGSN
TAF
PGSN 241738Z 2418/2518 11010KT 6SM -RA VCSH SCT015 BKN040 OVC100
      TEMPO 2418/2420 3SM SHRA SCT015 BKN025
     FM242000 10011KT P6SM VCSH SCT017 SCT040 BKN120
     FM242300 10016KT P6SM VCSH SCT020 SCT050 BKN120=

USA.gov is the U.S. government's official web portal to all federal, state and local government web resources and services.